Time;durP1;ratioP1;P1;durP2;ratioP2;P2;SDS_P1;SDS_P2;PMS_P1;PMS_P2;Temp;Humidity;BMP_temperature;BMP_pressure;BME280_temperature;BME280_humidity;BME280_pressure;Samples;Min_cycle;Max_cycle;Signal;HPM_P1;HPM_P2
2024/01/02 00:01:55;;;;;;;2.58;0.80;;;;;;;6.99;100.00;98172.69;5073649;28;20024;-60
2024/01/02 00:04:20;;;;;;;3.90;0.45;;;;;;;6.89;100.00;98161.44;5061011;28;20036;-60
2024/01/02 00:06:48;;;;;;;5.78;0.90;;;;;;;6.90;100.00;98163.13;5055010;28;20029;-60
2024/01/02 00:09:15;;;;;;;1.75;0.65;;;;;;;6.90;100.00;98149.66;5064116;28;20129;-60
2024/01/02 00:11:42;;;;;;;4.63;0.70;;;;;;;6.74;100.00;98146.25;5054665;28;20097;-61
2024/01/02 00:14:08;;;;;;;3.25;0.85;;;;;;;6.83;100.00;98140.72;5073219;28;20036;-61
2024/01/02 00:16:34;;;;;;;4.25;0.60;;;;;;;6.80;100.00;98145.44;5074010;28;20476;-61
2024/01/02 00:18:59;;;;;;;3.70;0.90;;;;;;;6.77;100.00;98135.09;5073068;28;20020;-61
2024/01/02 00:21:25;;;;;;;5.55;0.70;;;;;;;6.77;100.00;98127.03;5072442;28;20502;-61
2024/01/02 00:23:50;;;;;;;2.08;0.70;;;;;;;6.72;100.00;98126.78;5071649;28;20509;-61
2024/01/02 00:26:15;;;;;;;5.88;0.77;;;;;;;6.74;100.00;98129.28;5073076;28;20475;-60
2024/01/02 00:28:41;;;;;;;5.13;0.60;;;;;;;6.77;100.00;98124.34;5070579;28;20035;-60
2024/01/02 00:31:08;;;;;;;3.50;0.47;;;;;;;6.77;100.00;98110.91;5066562;28;20075;-60
2024/01/02 00:33:33;;;;;;;3.88;0.77;;;;;;;6.75;100.00;98098.69;5066659;28;20397;-60
2024/01/02 00:35:58;;;;;;;1.48;0.52;;;;;;;6.79;100.00;98116.91;5071399;28;20032;-60
2024/01/02 00:38:27;;;;;;;3.95;0.50;;;;;;;6.80;100.00;98115.88;5063695;28;20016;-61
2024/01/02 00:40:52;;;;;;;4.00;0.77;;;;;;;6.79;100.00;98108.03;5071326;28;20024;-60
2024/01/02 00:43:18;;;;;;;5.85;0.52;;;;;;;6.79;100.00;98095.41;5071289;28;20094;-62
2024/01/02 00:45:45;;;;;;;1.60;0.30;;;;;;;6.85;100.00;98092.97;5074934;28;20056;-58
2024/01/02 00:48:11;;;;;;;6.25;1.52;;;;;;;6.80;100.00;98086.31;5075462;28;20464;-58
2024/01/02 00:50:36;;;;;;;6.88;0.60;;;;;;;6.82;100.00;98082.59;5074363;28;20032;-58
2024/01/02 00:53:04;;;;;;;1.55;0.50;;;;;;;6.80;100.00;98093.53;5073035;28;20024;-58
2024/01/02 00:55:30;;;;;;;5.43;0.68;;;;;;;6.76;100.00;98078.84;5054789;28;20537;-59
2024/01/02 00:57:55;;;;;;;3.45;0.77;;;;;;;6.68;100.00;98082.53;5074228;28;20036;-58
2024/01/02 01:00:23;;;;;;;5.13;0.60;;;;;;;6.81;100.00;98092.50;5072915;28;20029;-58
2024/01/02 01:02:48;;;;;;;4.68;0.50;;;;;;;6.76;100.00;98084.22;5071151;28;20028;-59
2024/01/02 01:05:13;;;;;;;3.53;0.63;;;;;;;6.70;100.00;98080.44;5072191;28;20020;-58
2024/01/02 01:07:39;;;;;;;2.78;0.60;;;;;;;6.69;100.00;98075.28;5072305;28;20440;-58
2024/01/02 01:10:04;;;;;;;9.13;0.70;;;;;;;6.74;100.00;98064.75;5054549;28;20108;-58
2024/01/02 01:12:30;;;;;;;2.65;0.47;;;;;;;6.68;100.00;98054.78;5072902;28;20497;-58
2024/01/02 01:14:55;;;;;;;0.85;0.30;;;;;;;6.77;100.00;98057.13;5070436;28;20513;-58
2024/01/02 01:17:21;;;;;;;2.40;0.47;;;;;;;6.83;100.00;98054.69;5071243;28;20025;-58
2024/01/02 01:19:46;;;;;;;2.05;0.60;;;;;;;6.83;100.00;98044.75;5073082;28;20021;-58
2024/01/02 01:22:11;;;;;;;3.05;0.50;;;;;;;6.86;100.00;98052.41;5072590;28;20024;-58
2024/01/02 01:24:37;;;;;;;2.63;0.40;;;;;;;6.84;100.00;98048.25;5071711;28;20024;-58
2024/01/02 01:27:02;;;;;;;2.40;0.65;;;;;;;6.86;100.00;98046.22;5073176;28;20357;-58
2024/01/02 01:29:28;;;;;;;1.38;0.30;;;;;;;6.78;100.00;98039.13;5073225;28;20111;-58
2024/01/02 01:31:54;;;;;;;4.65;0.50;;;;;;;6.83;100.00;98041.22;5072549;28;20137;-60
2024/01/02 01:34:19;;;;;;;3.92;0.50;;;;;;;6.86;100.00;98038.97;5069172;28;20032;-60
2024/01/02 01:36:45;;;;;;;1.38;0.47;;;;;;;6.86;100.00;98027.38;5053684;28;20025;-61
2024/01/02 01:39:11;;;;;;;1.70;0.40;;;;;;;6.83;100.00;98033.16;5054064;28;20511;-61
2024/01/02 01:41:36;;;;;;;3.83;0.50;;;;;;;6.79;100.00;98013.94;5060652;28;20060;-60
2024/01/02 01:44:02;;;;;;;5.30;0.52;;;;;;;6.83;100.00;98020.56;5071502;28;20039;-60
2024/01/02 01:46:36;;;;;;;1.77;0.40;;;;;;;6.85;100.00;98015.81;5072160;28;20036;-61
2024/01/02 01:49:02;;;;;;;4.25;0.52;;;;;;;6.86;100.00;98011.25;5072431;28;20411;-60
2024/01/02 01:51:28;;;;;;;3.47;0.55;;;;;;;6.87;100.00;98010.25;5072551;28;20024;-58
2024/01/02 01:53:54;;;;;;;2.47;0.35;;;;;;;6.88;100.00;98004.66;5066469;28;20495;-58
2024/01/02 01:56:21;;;;;;;2.58;0.30;;;;;;;6.92;100.00;97995.16;5064823;28;20024;-58
2024/01/02 01:58:46;;;;;;;0.77;0.20;;;;;;;6.86;100.00;97992.44;5072846;28;20107;-58
2024/01/02 02:01:12;;;;;;;2.35;0.30;;;;;;;6.90;100.00;97982.97;5072319;28;20099;-58
2024/01/02 02:03:37;;;;;;;0.93;0.30;;;;;;;6.84;100.00;97989.97;5073000;28;20082;-58
2024/01/02 02:06:03;;;;;;;3.53;0.45;;;;;;;6.94;100.00;97989.56;5072823;28;20494;-58
2024/01/02 02:08:34;;;;;;;4.78;0.30;;;;;;;6.95;100.00;97975.13;5071632;28;20136;-58
2024/01/02 02:11:00;;;;;;;2.90;0.30;;;;;;;7.07;100.00;97968.13;5070828;28;20048;-58
2024/01/02 02:13:25;;;;;;;1.67;0.30;;;;;;;6.99;100.00;97965.59;5070886;28;20080;-58
2024/01/02 02:15:50;;;;;;;2.72;0.47;;;;;;;6.96;100.00;97971.38;5068092;28;20111;-58
2024/01/02 02:18:16;;;;;;;2.42;0.47;;;;;;;6.87;100.00;97961.84;5072904;28;20067;-59
2024/01/02 02:20:41;;;;;;;8.85;0.63;;;;;;;6.83;100.00;97952.50;5072661;28;20211;-59
2024/01/02 02:23:06;;;;;;;1.75;0.38;;;;;;;6.79;100.00;97947.53;5074436;28;20048;-60
2024/01/02 02:25:32;;;;;;;1.85;0.40;;;;;;;6.69;100.00;97955.16;5079604;28;20082;-61
2024/01/02 02:27:57;;;;;;;2.47;0.30;;;;;;;6.59;100.00;97944.75;5077469;28;20119;-59
2024/01/02 02:30:23;;;;;;;2.22;0.45;;;;;;;6.45;100.00;97951.09;5073697;28;20442;-59
2024/01/02 02:32:48;;;;;;;4.95;0.50;;;;;;;6.33;100.00;97942.75;5072549;28;20028;-59
2024/01/02 02:35:14;;;;;;;2.55;0.45;;;;;;;6.17;100.00;97931.50;5078634;28;20028;-59
2024/01/02 02:37:39;;;;;;;1.48;0.25;;;;;;;6.09;100.00;97929.78;5079256;28;20058;-58
2024/01/02 02:40:05;;;;;;;3.33;0.45;;;;;;;6.01;100.00;97927.25;5075844;28;20048;-58
2024/01/02 02:42:30;;;;;;;2.55;0.60;;;;;;;5.94;100.00;97916.44;5079034;28;20085;-58
2024/01/02 02:44:58;;;;;;;2.42;0.40;;;;;;;5.93;100.00;97920.16;5076862;28;20024;-58
2024/01/02 02:47:23;;;;;;;6.25;0.98;;;;;;;5.86;100.00;97932.69;5076761;28;20476;-58
2024/01/02 02:49:51;;;;;;;1.23;0.30;;;;;;;5.79;100.00;97921.91;5077609;28;20043;-58
2024/01/02 02:52:19;;;;;;;3.83;0.70;;;;;;;5.74;100.00;97910.91;5079162;28;20020;-58
2024/01/02 02:54:44;;;;;;;1.67;0.50;;;;;;;5.71;100.00;97914.81;5077921;28;20364;-58
2024/01/02 02:57:10;;;;;;;2.03;0.43;;;;;;;5.67;100.00;97910.03;5050545;28;20025;-58
2024/01/02 02:59:35;;;;;;;3.78;0.75;;;;;;;5.66;100.00;97905.69;5065670;28;20033;-58
2024/01/02 03:02:02;;;;;;;1.38;0.47;;;;;;;5.65;100.00;97898.66;5076172;28;20034;-59
2024/01/02 03:04:27;;;;;;;4.40;0.40;;;;;;;5.74;100.00;97897.50;5077840;28;20036;-60
2024/01/02 03:06:53;;;;;;;5.00;0.40;;;;;;;5.70;100.00;97893.53;5075574;28;20033;-61
2024/01/02 03:09:32;;;;;;;4.80;0.70;;;;;;;5.80;100.00;97883.28;5079503;28;20031;-61
2024/01/02 03:11:57;;;;;;;3.83;0.40;;;;;;;5.83;100.00;97863.28;5071429;28;20111;-61
2024/01/02 03:14:23;;;;;;;3.10;0.40;;;;;;;5.90;100.00;97858.78;5076992;28;20523;-61
2024/01/02 03:16:48;;;;;;;2.33;0.50;;;;;;;5.86;100.00;97838.72;5085231;23;20037;-78
2024/01/02 03:19:14;;;;;;;1.35;0.43;;;;;;;5.66;100.00;97817.97;5058464;28;20020;-78
2024/01/02 03:21:39;;;;;;;2.88;0.65;;;;;;;5.83;100.00;97837.25;5083912;28;20052;-79
2024/01/02 03:24:05;;;;;;;1.38;0.30;;;;;;;5.89;100.00;97830.28;5084452;28;20522;-79
2024/01/02 03:26:30;;;;;;;2.95;0.73;;;;;;;5.67;100.00;97791.97;5080810;28;20024;-79
2024/01/02 03:28:55;;;;;;;2.65;0.45;;;;;;;5.85;100.00;97805.69;5067904;28;20084;-80
2024/01/02 03:31:20;;;;;;;1.67;0.45;;;;;;;5.74;100.00;97784.78;5078544;28;20034;-80
2024/01/02 03:33:47;;;;;;;0.55;0.38;;;;;;;5.80;100.00;97800.09;5051096;28;20066;-79
2024/01/02 03:36:19;;;;;;;0.75;0.40;;;;;;;5.83;100.00;97798.88;5061595;28;20035;-79
2024/01/02 03:38:50;;;;;;;1.08;0.40;;;;;;;5.77;100.00;97800.50;5055699;28;20024;-79
2024/01/02 03:41:16;;;;;;;1.10;0.35;;;;;;;5.74;100.00;97782.09;5060739;28;20035;-79
2024/01/02 03:43:41;;;;;;;1.75;0.40;;;;;;;5.77;100.00;97783.56;5063557;28;20032;-79
2024/01/02 03:46:07;;;;;;;1.70;0.93;;;;;;;5.60;100.00;97789.22;5063200;28;20020;-79
2024/01/02 03:48:32;;;;;;;1.45;0.30;;;;;;;5.56;100.00;97765.69;5066652;28;20031;-79
2024/01/02 03:50:58;;;;;;;3.42;0.40;;;;;;;5.55;100.00;97769.38;5055740;28;20085;-79
2024/01/02 03:53:23;;;;;;;1.05;0.30;;;;;;;5.48;100.00;97783.59;5061949;28;20032;-79
2024/01/02 03:55:49;;;;;;;0.93;0.30;;;;;;;5.59;100.00;97763.44;5081926;28;20496;-79
2024/01/02 03:58:14;;;;;;;2.35;0.75;;;;;;;5.60;100.00;97766.94;5068740;28;20028;-79
2024/01/02 04:00:40;;;;;;;1.52;0.60;;;;;;;5.58;100.00;97768.97;5059246;28;20028;-79
2024/01/02 04:03:06;;;;;;;2.50;0.60;;;;;;;5.49;100.00;97744.16;5071778;28;20070;-79
2024/01/02 04:05:31;;;;;;;1.52;0.65;;;;;;;5.53;100.00;97749.97;5076344;28;20063;-80
2024/01/02 04:07:56;;;;;;;4.68;0.50;;;;;;;5.52;100.00;97748.31;5095638;28;20081;-80
2024/01/02 04:10:22;;;;;;;2.60;0.47;;;;;;;5.54;100.00;97755.13;5060534;28;20039;-80
2024/01/02 04:12:47;;;;;;;1.77;0.30;;;;;;;5.41;100.00;97742.47;5092058;28;20103;-80
2024/01/02 04:15:12;;;;;;;2.88;0.30;;;;;;;5.40;100.00;97740.81;5064858;28;20493;-79
2024/01/02 04:17:38;;;;;;;1.15;0.30;;;;;;;5.43;100.00;97724.31;5057267;28;20025;-80
2024/01/02 04:20:03;;;;;;;4.80;0.43;;;;;;;5.29;100.00;97709.16;5045332;28;20079;-79
2024/01/02 04:22:29;;;;;;;1.20;0.30;;;;;;;5.47;100.00;97747.03;5066218;28;20568;-79
2024/01/02 04:24:54;;;;;;;1.63;0.30;;;;;;;5.30;100.00;97702.78;5060032;28;20020;-78
2024/01/02 04:27:19;;;;;;;0.40;0.30;;;;;;;5.51;100.00;97722.53;5061249;28;20056;-79
2024/01/02 04:29:44;;;;;;;0.90;0.22;;;;;;;5.43;100.00;97713.59;5061083;28;20021;-78
2024/01/02 04:32:10;;;;;;;0.70;0.40;;;;;;;5.41;100.00;97721.00;5065322;28;20028;-78
2024/01/02 04:34:36;;;;;;;3.40;0.50;;;;;;;5.41;100.00;97725.56;5065015;28;20493;-78
2024/01/02 04:37:01;;;;;;;1.92;0.43;;;;;;;5.37;100.00;97710.88;5084051;28;20106;-79
2024/01/02 04:39:27;;;;;;;0.63;0.28;;;;;;;5.49;100.00;97709.28;5081348;28;20035;-79
2024/01/02 04:41:52;;;;;;;2.03;0.55;;;;;;;5.39;100.00;97688.19;5065346;28;20032;-79
2024/01/02 04:44:18;;;;;;;2.53;0.20;;;;;;;5.41;100.00;97682.63;5064281;28;20583;-79
2024/01/02 04:46:44;;;;;;;3.97;0.30;;;;;;;5.41;100.00;97694.19;5064124;28;20024;-79
2024/01/02 04:49:20;;;;;;;0.35;0.13;;;;;;;5.41;100.00;97691.50;5080559;28;20842;-78
2024/01/02 04:51:46;;;;;;;0.60;0.20;;;;;;;5.43;100.00;97686.78;5068318;23;20045;-60
2024/01/02 04:54:11;;;;;;;1.27;0.20;;;;;;;5.43;100.00;97689.47;5076023;28;20039;-59
2024/01/02 04:56:37;;;;;;;0.52;0.20;;;;;;;5.42;100.00;97693.19;5080832;28;20019;-58
2024/01/02 04:59:03;;;;;;;1.77;0.20;;;;;;;5.46;100.00;97677.50;5078349;28;20022;-58
2024/01/02 05:01:29;;;;;;;0.22;0.15;;;;;;;5.42;100.00;97684.28;5087846;28;20410;-59
2024/01/02 05:03:54;;;;;;;0.75;0.30;;;;;;;5.46;100.00;97678.31;5080727;28;20028;-60
2024/01/02 05:06:20;;;;;;;0.68;0.10;;;;;;;5.48;100.00;97673.59;5080117;28;20464;-59
2024/01/02 05:08:46;;;;;;;1.17;0.30;;;;;;;5.46;100.00;97653.38;5089952;28;20040;-59
2024/01/02 05:11:11;;;;;;;0.20;0.20;;;;;;;5.52;100.00;97659.78;5073628;28;20463;-59
2024/01/02 05:13:38;;;;;;;0.13;0.10;;;;;;;5.44;100.00;97642.00;5095029;28;20024;-58
2024/01/02 05:16:03;;;;;;;0.30;0.10;;;;;;;5.50;100.00;97657.28;5088172;28;20460;-60
2024/01/02 05:18:29;;;;;;;0.30;0.10;;;;;;;5.50;100.00;97649.25;5085393;28;20080;-60
2024/01/02 05:20:54;;;;;;;0.20;0.20;;;;;;;5.49;100.00;97645.72;5084517;28;20057;-59
2024/01/02 05:23:19;;;;;;;0.45;0.20;;;;;;;5.48;100.00;97644.09;5086444;28;20064;-60
2024/01/02 05:25:45;;;;;;;0.57;0.10;;;;;;;5.53;100.00;97651.53;5075136;28;20032;-59
2024/01/02 05:28:10;;;;;;;0.80;0.28;;;;;;;5.53;100.00;97643.50;5075479;28;20031;-59
2024/01/02 05:30:36;;;;;;;0.00;0.00;;;;;;;5.52;100.00;97635.63;5087452;28;20092;-58
2024/01/02 05:33:01;;;;;;;0.20;0.13;;;;;;;5.54;100.00;97630.91;5091396;28;20027;-58
2024/01/02 05:35:27;;;;;;;0.20;0.10;;;;;;;5.58;100.00;97619.59;5099669;28;20035;-58
2024/01/02 05:37:52;;;;;;;0.47;0.10;;;;;;;5.52;100.00;97619.53;5081674;28;20032;-58
2024/01/02 05:40:17;;;;;;;1.42;0.10;;;;;;;5.54;100.00;97633.59;5089722;28;20027;-58
2024/01/02 05:42:43;;;;;;;0.68;0.10;;;;;;;5.49;100.00;97626.97;5092854;28;20176;-58
2024/01/02 05:45:09;;;;;;;2.58;0.20;;;;;;;5.48;100.00;97613.75;5090913;28;20107;-58
2024/01/02 05:47:34;;;;;;;1.98;0.50;;;;;;;5.49;100.00;97610.84;5085820;28;20024;-58
2024/01/02 05:49:59;;;;;;;0.60;0.30;;;;;;;5.49;100.00;97605.50;5080580;28;20103;-58
2024/01/02 05:52:25;;;;;;;0.50;0.25;;;;;;;5.48;100.00;97587.75;5068813;28;20063;-57
2024/01/02 05:54:50;;;;;;;4.57;0.40;;;;;;;5.52;100.00;97581.97;5080655;28;20036;-57
2024/01/02 05:57:16;;;;;;;0.52;0.10;;;;;;;5.56;100.00;97586.75;5064752;28;20101;-58
2024/01/02 05:59:41;;;;;;;1.20;0.28;;;;;;;5.57;100.00;97591.06;5089821;28;20020;-58
2024/01/02 06:02:07;;;;;;;0.22;0.15;;;;;;;5.56;100.00;97580.56;5080893;28;20063;-58
2024/01/02 06:04:32;;;;;;;0.38;0.20;;;;;;;5.48;100.00;97562.78;5082835;28;20028;-58
2024/01/02 06:06:58;;;;;;;0.52;0.38;;;;;;;5.62;100.00;97566.34;5093509;28;20053;-58
2024/01/02 06:09:23;;;;;;;1.17;0.30;;;;;;;5.59;100.00;97570.25;5076849;28;20276;-58
2024/01/02 06:11:49;;;;;;;0.60;0.20;;;;;;;5.61;100.00;97581.63;5076020;28;20021;-58
2024/01/02 06:14:15;;;;;;;0.20;0.20;;;;;;;5.55;100.00;97576.22;5087583;28;20407;-58
2024/01/02 06:16:41;;;;;;;5.03;0.50;;;;;;;5.59;100.00;97562.19;5079763;28;20117;-58
2024/01/02 06:19:07;;;;;;;0.25;0.20;;;;;;;5.66;100.00;97578.34;5085269;28;20047;-58
2024/01/02 06:21:32;;;;;;;1.15;0.60;;;;;;;5.68;100.00;97560.16;5086064;28;20046;-58
2024/01/02 06:23:58;;;;;;;2.83;0.50;;;;;;;5.66;100.00;97556.88;5085457;28;20341;-58
2024/01/02 06:26:23;;;;;;;2.05;0.40;;;;;;;5.67;100.00;97558.50;5074757;28;20118;-58
2024/01/02 06:28:48;;;;;;;0.80;0.40;;;;;;;5.68;100.00;97539.50;5072765;28;20028;-58
2024/01/02 06:31:14;;;;;;;0.95;0.30;;;;;;;5.72;100.00;97550.69;5085636;28;20443;-58
2024/01/02 06:33:44;;;;;;;1.02;0.47;;;;;;;5.69;100.00;97543.03;5091477;28;20043;-58
2024/01/02 06:36:09;;;;;;;;;;;;;;;5.67;100.00;97548.59;5081782;28;20024;-58
2024/01/02 06:38:35;;;;;;;0.47;0.22;;;;;;;5.65;100.00;97531.03;5081363;28;20414;-58
2024/01/02 06:41:00;;;;;;;0.40;0.20;;;;;;;5.64;100.00;97526.72;5080075;28;20430;-58
2024/01/02 06:43:26;;;;;;;1.35;0.40;;;;;;;5.68;100.00;97544.06;5082510;28;20103;-58
2024/01/02 06:45:51;;;;;;;1.00;0.32;;;;;;;5.65;100.00;97536.41;5085527;28;20369;-59
2024/01/02 06:48:17;;;;;;;0.50;0.30;;;;;;;5.73;100.00;97533.53;5074393;28;20020;-59
2024/01/02 06:50:42;;;;;;;0.85;0.50;;;;;;;5.74;100.00;97537.88;5065176;28;20115;-59
2024/01/02 06:53:08;;;;;;;0.77;0.50;;;;;;;5.70;100.00;97533.94;5081011;28;20352;-59
2024/01/02 06:55:34;;;;;;;1.33;0.70;;;;;;;5.75;100.00;97522.59;5090474;28;20028;-58
2024/01/02 06:58:00;;;;;;;0.45;0.30;;;;;;;5.72;100.00;97518.47;5092990;28;20012;-58
2024/01/02 07:00:25;;;;;;;1.63;0.40;;;;;;;5.75;100.00;97518.06;5071489;28;20363;-58
2024/01/02 07:02:51;;;;;;;0.95;0.40;;;;;;;5.73;100.00;97512.06;5074110;28;20050;-58
2024/01/02 07:05:17;;;;;;;1.23;0.35;;;;;;;5.88;100.00;97518.06;5079834;28;20071;-58
2024/01/02 07:07:42;;;;;;;0.55;0.32;;;;;;;5.87;100.00;97511.06;5092246;28;20016;-57
2024/01/02 07:10:08;;;;;;;0.82;0.40;;;;;;;5.87;100.00;97512.94;5080960;28;20035;-58
2024/01/02 07:12:33;;;;;;;0.60;0.40;;;;;;;5.89;100.00;97506.31;5077913;28;20035;-57
2024/01/02 07:14:59;;;;;;;1.08;0.60;;;;;;;5.88;100.00;97514.56;5084861;28;20028;-58
2024/01/02 07:17:25;;;;;;;1.95;0.60;;;;;;;5.91;100.00;97523.03;5082111;28;20025;-57
2024/01/02 07:19:51;;;;;;;2.17;0.70;;;;;;;5.92;100.00;97530.06;5091705;28;20028;-57
2024/01/02 07:22:17;;;;;;;0.93;0.45;;;;;;;5.92;100.00;97524.69;5084329;28;20095;-57
2024/01/02 07:24:43;;;;;;;1.23;0.38;;;;;;;6.00;100.00;97526.38;5098435;28;20034;-57
2024/01/02 07:27:09;;;;;;;1.58;0.52;;;;;;;6.01;100.00;97524.53;5077276;28;20079;-57
2024/01/02 07:29:35;;;;;;;0.63;0.40;;;;;;;6.11;100.00;97523.09;5094427;28;20039;-57
2024/01/02 07:32:00;;;;;;;1.40;0.32;;;;;;;6.12;100.00;97518.53;5095864;28;20031;-57
2024/01/02 07:34:25;;;;;;;0.77;0.40;;;;;;;6.28;100.00;97507.38;5101142;28;20027;-57
2024/01/02 07:36:51;;;;;;;0.70;0.40;;;;;;;6.36;100.00;97514.38;5092224;28;20032;-57
2024/01/02 07:39:16;;;;;;;0.70;0.40;;;;;;;6.34;100.00;97506.56;5087641;28;20033;-57
2024/01/02 07:41:41;;;;;;;0.30;0.30;;;;;;;6.44;100.00;97511.47;5086815;28;20024;-57
2024/01/02 07:44:07;;;;;;;0.50;0.30;;;;;;;6.62;100.00;97518.91;5088386;28;20112;-57
2024/01/02 07:46:33;;;;;;;2.35;0.43;;;;;;;6.66;100.00;97514.78;5084900;28;20027;-57
2024/01/02 07:48:58;;;;;;;1.52;0.40;;;;;;;6.69;100.00;97514.34;5086456;28;20153;-57
2024/01/02 07:51:24;;;;;;;0.30;0.20;;;;;;;6.78;100.00;97521.13;5086268;28;20479;-57
2024/01/02 07:53:49;;;;;;;0.68;0.50;;;;;;;6.78;100.00;97507.69;5067500;28;20031;-57
2024/01/02 07:56:21;;;;;;;2.17;0.40;;;;;;;6.83;100.00;97503.56;5096011;28;20020;-57
2024/01/02 07:58:46;;;;;;;1.05;0.40;;;;;;;6.88;100.00;97501.88;5085063;28;20024;-60
2024/01/02 08:01:13;;;;;;;1.08;0.50;;;;;;;6.98;100.00;97512.19;5089349;28;20157;-58
2024/01/02 08:03:39;;;;;;;0.50;0.40;;;;;;;6.99;100.00;97516.53;5093082;28;20172;-58
2024/01/02 08:06:04;;;;;;;1.27;0.30;;;;;;;7.02;100.00;97508.03;5093464;28;20531;-58
2024/01/02 08:08:30;;;;;;;0.50;0.40;;;;;;;7.03;100.00;97507.81;5095929;28;20055;-58
2024/01/02 08:10:55;;;;;;;2.88;0.60;;;;;;;7.03;100.00;97520.44;5093281;28;20043;-58
2024/01/02 08:13:21;;;;;;;1.05;0.32;;;;;;;7.13;100.00;97517.31;5096216;28;20035;-58
2024/01/02 08:15:46;;;;;;;0.40;0.38;;;;;;;7.13;100.00;97509.25;5090324;28;20085;-58
2024/01/02 08:18:12;;;;;;;0.70;0.70;;;;;;;7.19;100.00;97522.66;5092550;28;20051;-57
2024/01/02 08:20:37;;;;;;;1.13;0.70;;;;;;;7.25;100.00;97527.19;5094080;28;20077;-58
2024/01/02 08:23:03;;;;;;;0.55;0.30;;;;;;;7.28;100.00;97527.78;5095006;28;20477;-59
2024/01/02 08:25:29;;;;;;;0.20;0.20;;;;;;;7.32;100.00;97531.72;5083104;28;20430;-58
2024/01/02 08:27:54;;;;;;;0.75;0.10;;;;;;;7.31;100.00;97516.59;5089980;28;20032;-58
2024/01/02 08:30:21;;;;;;;0.57;0.20;;;;;;;7.30;100.00;97520.34;5091827;28;20103;-58
2024/01/02 08:32:46;;;;;;;0.08;0.05;;;;;;;7.33;100.00;97527.97;5087857;28;20040;-58
2024/01/02 08:35:11;;;;;;;4.07;0.30;;;;;;;7.31;100.00;97540.81;5084507;28;20082;-58
2024/01/02 08:37:37;;;;;;;0.55;0.40;;;;;;;7.29;100.00;97542.91;5092319;28;20029;-58
2024/01/02 08:40:03;;;;;;;0.73;0.30;;;;;;;7.28;100.00;97538.56;5089461;28;20028;-58
2024/01/02 08:42:28;;;;;;;0.65;0.10;;;;;;;7.30;100.00;97534.63;5082125;28;20492;-58
2024/01/02 08:44:54;;;;;;;0.10;0.00;;;;;;;7.32;100.00;97534.41;5070820;28;20119;-61
2024/01/02 08:47:19;;;;;;;0.20;0.10;;;;;;;7.40;100.00;97529.59;5095048;28;20024;-58
2024/01/02 08:49:45;;;;;;;0.25;0.10;;;;;;;7.46;100.00;97536.00;5084023;28;20028;-59
2024/01/02 08:52:12;;;;;;;0.63;0.30;;;;;;;7.47;100.00;97522.34;5081674;28;20066;-58
2024/01/02 08:54:38;;;;;;;1.42;0.28;;;;;;;7.45;100.00;97528.97;5084145;28;20028;-58
2024/01/02 08:57:03;;;;;;;0.43;0.13;;;;;;;7.42;100.00;97532.91;5088339;28;20027;-59
2024/01/02 08:59:29;;;;;;;1.25;0.40;;;;;;;7.44;100.00;97535.38;5089270;28;20050;-58
2024/01/02 09:01:54;;;;;;;0.20;0.20;;;;;;;7.43;100.00;97525.66;5086498;28;20638;-58
2024/01/02 09:04:20;;;;;;;0.65;0.20;;;;;;;7.46;100.00;97527.91;5085565;28;20454;-58
2024/01/02 09:06:45;;;;;;;0.13;0.10;;;;;;;7.51;100.00;97533.47;5086503;28;20023;-58
2024/01/02 09:09:11;;;;;;;0.63;0.40;;;;;;;7.48;100.00;97528.53;5088824;28;20028;-58
2024/01/02 09:11:37;;;;;;;0.38;0.20;;;;;;;7.61;100.00;97538.41;5097914;28;20024;-58
2024/01/02 09:14:03;;;;;;;0.40;0.20;;;;;;;7.63;100.00;97537.16;5089222;28;20073;-58
2024/01/02 09:16:32;;;;;;;0.30;0.15;;;;;;;7.64;100.00;97533.41;5088180;22;20060;-56
2024/01/02 09:18:58;;;;;;;2.10;0.35;;;;;;;7.73;100.00;97533.16;5068967;28;20020;-56
2024/01/02 09:21:24;;;;;;;0.60;0.20;;;;;;;7.80;100.00;97534.75;5090229;28;20099;-56
2024/01/02 09:23:49;;;;;;;0.45;0.20;;;;;;;7.80;100.00;97547.41;5089559;28;20180;-57
2024/01/02 09:26:19;;;;;;;0.85;0.28;;;;;;;7.84;100.00;97544.06;5093879;28;20020;-56
2024/01/02 09:28:45;;;;;;;0.22;0.20;;;;;;;7.88;100.00;97550.66;5097998;28;20020;-57
2024/01/02 09:31:11;;;;;;;0.35;0.10;;;;;;;7.96;100.00;97541.50;5092067;28;20027;-55
2024/01/02 09:33:38;;;;;;;0.10;0.10;;;;;;;7.95;100.00;97533.66;5100763;28;20023;-55
2024/01/02 09:36:07;;;;;;;0.15;0.10;;;;;;;8.05;100.00;97544.78;5085606;28;20020;-55
2024/01/02 09:38:33;;;;;;;0.73;0.20;;;;;;;8.12;100.00;97535.59;5091888;28;20685;-55
2024/01/02 09:41:18;;;;;;;0.45;0.20;;;;;;;8.21;100.00;97529.94;5090959;28;20103;-56
2024/01/02 09:43:55;;;;;;;1.05;0.10;;;;;;;8.32;100.00;97519.25;5100380;28;20024;-56
2024/01/02 09:46:35;;;;;;;0.32;0.10;;;;;;;8.39;100.00;97518.38;5091705;28;20031;-55
2024/01/02 09:49:26;;;;;;;0.13;0.03;;;;;;;8.44;100.00;97515.88;5085656;28;20028;-56
2024/01/02 09:52:29;;;;;;;0.15;0.10;;;;;;;8.53;100.00;97509.97;5114025;28;20055;-56
2024/01/02 09:55:23;;;;;;;0.10;0.10;;;;;;;8.61;100.00;97514.25;5097610;28;20027;-56
2024/01/02 09:58:04;;;;;;;0.30;0.17;;;;;;;8.63;100.00;97505.97;5105348;28;20020;-56
2024/01/02 10:00:42;;;;;;;0.10;0.10;;;;;;;8.72;100.00;97508.16;5088291;28;20026;-56
2024/01/02 10:03:41;;;;;;;1.35;0.13;;;;;;;8.75;100.00;97512.25;5073347;28;20035;-56
2024/01/02 10:06:12;;;;;;;0.20;0.10;;;;;;;8.87;100.00;97510.47;5089266;28;20023;-56
2024/01/02 10:08:57;;;;;;;1.52;0.08;;;;;;;8.90;100.00;97504.63;5086187;28;20027;-56
2024/01/02 10:11:54;;;;;;;0.43;0.10;;;;;;;8.94;100.00;97508.53;5085431;28;20081;-56
2024/01/02 10:14:30;;;;;;;1.30;0.15;;;;;;;8.90;100.00;97504.63;5086946;28;20257;-56
2024/01/02 10:16:59;;;;;;;0.55;0.10;;;;;;;8.95;100.00;97507.47;5087052;28;20031;-56
2024/01/02 10:19:30;;;;;;;0.10;0.00;;;;;;;8.96;100.00;97497.50;5087199;28;20471;-56
2024/01/02 10:22:14;;;;;;;0.28;0.20;;;;;;;8.97;100.00;97505.38;5093598;28;20020;-56
2024/01/02 10:24:57;;;;;;;0.05;0.05;;;;;;;8.99;100.00;97508.66;5087853;28;20036;-56
2024/01/02 10:27:30;;;;;;;0.85;0.10;;;;;;;8.99;100.00;97503.28;5084902;28;20047;-56
2024/01/02 10:30:06;;;;;;;0.45;0.20;;;;;;;9.00;100.00;97499.53;5087045;28;20020;-57
2024/01/02 10:33:02;;;;;;;0.20;0.10;;;;;;;9.03;100.00;97484.75;5088182;28;20031;-56
2024/01/02 10:35:35;;;;;;;0.38;0.20;;;;;;;9.10;100.00;97488.22;5082198;28;20087;-57
2024/01/02 10:38:19;;;;;;;1.38;0.50;;;;;;;9.16;100.00;97481.06;5087406;28;20023;-56
2024/01/02 10:40:51;;;;;;;1.85;0.70;;;;;;;9.19;100.00;97480.63;5087448;28;20031;-56
2024/01/02 10:43:27;;;;;;;2.75;1.08;;;;;;;9.17;100.00;97477.34;5089411;28;20012;-57
2024/01/02 10:46:11;;;;;;;0.60;0.30;;;;;;;9.24;100.00;97475.38;5096319;28;20016;-57
2024/01/02 10:49:00;;;;;;;0.65;0.30;;;;;;;9.29;100.00;97472.00;5096274;28;20024;-57
2024/01/02 10:51:39;;;;;;;0.60;0.40;;;;;;;9.28;100.00;97457.69;5094519;28;20551;-56
2024/01/02 10:54:08;;;;;;;0.52;0.30;;;;;;;9.32;100.00;97458.84;5100349;28;20445;-62
2024/01/02 10:56:55;;;;;;;;;;;;;;;9.35;100.00;97453.03;5095134;28;20039;-63
2024/01/02 10:59:24;;;;;;;1.40;0.40;;;;;;;9.46;100.00;97447.88;5092593;28;19912;-58
2024/01/02 11:01:55;;;;;;;0.17;0.13;;;;;;;9.48;100.00;97446.59;5093263;28;20032;-57
2024/01/02 11:04:34;;;;;;;0.50;0.40;;;;;;;9.55;100.00;97441.09;5094009;28;20107;-57
2024/01/02 11:07:09;;;;;;;0.22;0.20;;;;;;;9.52;100.00;97445.09;5094218;28;20043;-64
2024/01/02 11:09:56;;;;;;;0.32;0.10;;;;;;;9.53;100.00;97429.72;5093417;28;20030;-64
2024/01/02 11:12:27;;;;;;;0.10;0.10;;;;;;;9.63;100.00;97429.97;5103704;28;20032;-64
2024/01/02 11:14:53;;;;;;;0.22;0.20;;;;;;;9.61;100.00;97435.59;5096331;28;20040;-64
2024/01/02 11:17:19;;;;;;;0.30;0.10;;;;;;;9.61;100.00;97430.19;5093398;28;20051;-64
2024/01/02 11:20:01;;;;;;;0.22;0.10;;;;;;;9.69;100.00;97431.75;5093623;28;20119;-64
2024/01/02 11:22:39;;;;;;;0.40;0.20;;;;;;;9.65;100.00;97409.78;5095912;28;20044;-63
2024/01/02 11:25:09;;;;;;;0.28;0.10;;;;;;;9.76;100.00;97408.16;5094584;28;20028;-65
2024/01/02 11:27:38;;;;;;;0.20;0.10;;;;;;;9.75;100.00;97401.13;5095063;28;20040;-64
2024/01/02 11:30:07;;;;;;;0.60;0.43;;;;;;;9.84;100.00;97402.41;5087771;28;20028;-65
2024/01/02 11:33:04;;;;;;;0.10;0.10;;;;;;;9.83;100.00;97383.75;5094818;28;20024;-64
2024/01/02 11:35:39;;;;;;;0.17;0.00;;;;;;;9.86;100.00;97381.41;5095567;28;20036;-64
2024/01/02 11:38:09;;;;;;;0.22;0.05;;;;;;;9.93;100.00;97383.16;5094314;28;20039;-65